createdAt,value
2023-05-10T00:02:02.115Z,0.40
2023-05-10T00:04:28.831Z,0.40
2023-05-10T00:06:56.022Z,0.43
2023-05-10T00:09:22.437Z,0.40
2023-05-10T00:11:48.974Z,0.30
2023-05-10T00:14:15.691Z,0.30
2023-05-10T00:16:42.484Z,0.50
2023-05-10T00:19:09.071Z,0.50
2023-05-10T00:21:35.633Z,0.40
2023-05-10T00:24:02.409Z,0.47
2023-05-10T00:26:29.037Z,0.35
2023-05-10T00:28:56.921Z,0.40
2023-05-10T00:31:23.727Z,0.40
2023-05-10T00:33:50.805Z,0.50
2023-05-10T00:36:17.403Z,0.70
2023-05-10T00:38:44.084Z,0.30
2023-05-10T00:41:10.869Z,0.50
2023-05-10T00:43:39.580Z,0.40
2023-05-10T00:46:06.484Z,0.40
2023-05-10T00:48:34.598Z,0.50
2023-05-10T00:51:02.152Z,0.50
2023-05-10T00:53:28.875Z,0.40
2023-05-10T00:55:56.160Z,0.50
2023-05-10T00:58:24.450Z,0.43
2023-05-10T01:00:51.694Z,0.40
2023-05-10T01:03:18.378Z,0.47
2023-05-10T01:05:45.054Z,0.43
2023-05-10T01:08:11.445Z,0.50
2023-05-10T01:10:38.017Z,0.45
2023-05-10T01:13:04.834Z,0.47
2023-05-10T01:15:32.217Z,0.40
2023-05-10T01:17:59.315Z,0.50
2023-05-10T01:20:26.425Z,0.50
2023-05-10T01:22:55.756Z,0.52
2023-05-10T01:25:34.322Z,0.50
2023-05-10T01:28:00.957Z,0.40
2023-05-10T01:30:46.440Z,0.40
2023-05-10T01:33:21.846Z,0.60
2023-05-10T01:35:48.188Z,0.60
2023-05-10T01:38:14.705Z,0.60
2023-05-10T01:40:49.455Z,0.50
2023-05-10T01:43:23.033Z,0.52
2023-05-10T01:46:00.891Z,0.50
2023-05-10T01:48:29.186Z,0.50
2023-05-10T01:50:57.640Z,0.60
2023-05-10T01:53:24.738Z,0.60
2023-05-10T01:55:53.422Z,0.60
2023-05-10T01:58:22.498Z,0.52
2023-05-10T02:00:50.580Z,0.63
2023-05-10T02:03:18.674Z,0.50
2023-05-10T02:05:47.020Z,0.60
2023-05-10T02:08:14.893Z,0.60
2023-05-10T02:10:41.853Z,0.60
2023-05-10T02:13:08.772Z,0.80
2023-05-10T02:15:36.339Z,0.50
2023-05-10T02:20:44.757Z,0.60
2023-05-10T02:23:12.070Z,0.60
2023-05-10T02:25:39.667Z,0.60
2023-05-10T02:28:06.774Z,0.60
2023-05-10T02:30:34.828Z,0.60
2023-05-10T02:33:03.103Z,0.60
2023-05-10T02:35:29.887Z,0.70
2023-05-10T02:37:57.654Z,0.55
2023-05-10T02:40:26.809Z,0.60
2023-05-10T02:42:55.778Z,0.68
2023-05-10T02:45:24.472Z,0.68
2023-05-10T02:47:51.097Z,0.52
2023-05-10T02:50:17.878Z,1.48
2023-05-10T02:52:47.388Z,0.60
2023-05-10T02:55:17.253Z,0.80
2023-05-10T02:57:54.813Z,0.90
2023-05-10T03:00:21.833Z,0.82
2023-05-10T03:02:48.588Z,0.90
2023-05-10T03:05:14.974Z,1.10
2023-05-10T03:07:41.790Z,1.15
2023-05-10T03:10:08.857Z,1.40
2023-05-10T03:12:56.052Z,1.40
2023-05-10T03:15:34.966Z,1.30
2023-05-10T03:18:12.735Z,1.10
2023-05-10T03:20:42.200Z,1.17
2023-05-10T03:23:21.920Z,1.30
2023-05-10T03:25:49.529Z,1.35
2023-05-10T03:28:17.355Z,1.25
2023-05-10T03:30:44.550Z,1.40
2023-05-10T03:33:13.857Z,1.33
2023-05-10T03:35:43.320Z,1.63
2023-05-10T03:38:09.881Z,2.22
2023-05-10T03:40:36.532Z,2.10
2023-05-10T03:43:03.360Z,1.95
2023-05-10T03:45:30.036Z,1.90
2023-05-10T03:47:57.590Z,2.75
2023-05-10T03:50:25.246Z,2.00
2023-05-10T03:52:54.098Z,2.00
2023-05-10T03:55:21.295Z,2.10
2023-05-10T03:57:50.725Z,2.20
2023-05-10T04:00:17.765Z,2.40
2023-05-10T04:02:47.560Z,2.72
2023-05-10T04:05:18.925Z,3.05
2023-05-10T04:07:45.561Z,2.97
2023-05-10T04:10:12.640Z,2.70
2023-05-10T04:12:39.807Z,2.80
2023-05-10T04:15:06.624Z,3.30
2023-05-10T04:17:33.128Z,3.53
2023-05-10T04:19:59.820Z,2.78
2023-05-10T04:22:26.501Z,2.75
2023-05-10T04:24:52.893Z,2.97
2023-05-10T04:27:19.618Z,2.28
2023-05-10T04:29:46.376Z,2.90
2023-05-10T04:32:13.040Z,3.30
2023-05-10T04:34:39.395Z,3.22
2023-05-10T04:37:05.916Z,3.58
2023-05-10T04:39:33.152Z,3.00
2023-05-10T04:42:00.449Z,2.92
2023-05-10T04:44:27.223Z,3.05
2023-05-10T04:46:53.561Z,3.25
2023-05-10T04:49:20.295Z,3.00
2023-05-10T04:51:47.002Z,3.13
2023-05-10T04:54:13.855Z,2.40
2023-05-10T04:56:40.306Z,3.00
2023-05-10T04:59:07.036Z,2.55
2023-05-10T05:01:33.951Z,3.00
2023-05-10T05:04:00.633Z,2.60
2023-05-10T05:06:28.418Z,2.75
2023-05-10T05:08:54.927Z,3.13
2023-05-10T05:11:22.241Z,3.22
2023-05-10T05:13:48.811Z,3.30
2023-05-10T05:16:15.396Z,2.75
2023-05-10T05:18:41.994Z,3.08
2023-05-10T05:21:17.146Z,3.30
2023-05-10T05:23:43.865Z,3.22
2023-05-10T05:26:10.819Z,3.10
2023-05-10T05:28:38.530Z,3.15
2023-05-10T05:31:06.862Z,3.08
2023-05-10T05:33:33.668Z,2.88
2023-05-10T05:36:06.743Z,2.95
2023-05-10T05:38:33.249Z,3.10
2023-05-10T05:40:59.780Z,2.80
2023-05-10T05:43:26.482Z,2.90
2023-05-10T05:45:53.539Z,2.80
2023-05-10T05:48:20.105Z,3.10
2023-05-10T05:50:47.165Z,2.90
2023-05-10T05:53:13.718Z,3.00
2023-05-10T05:55:40.248Z,2.85
2023-05-10T05:58:06.729Z,2.67
2023-05-10T06:00:33.304Z,2.90
2023-05-10T06:03:00.117Z,2.80
2023-05-10T06:05:26.851Z,2.38
2023-05-10T06:07:53.453Z,2.30
2023-05-10T06:10:19.986Z,2.55
2023-05-10T06:12:46.671Z,3.30
2023-05-10T06:15:13.824Z,2.60
2023-05-10T06:17:41.477Z,2.00
2023-05-10T06:20:08.440Z,1.80
2023-05-10T06:22:35.013Z,1.90
2023-05-10T06:25:01.422Z,2.03
2023-05-10T06:27:28.125Z,2.05
2023-05-10T06:29:59.355Z,1.70
2023-05-10T06:32:32.516Z,1.77
2023-05-10T06:34:59.624Z,1.75
2023-05-10T06:37:25.999Z,1.90
2023-05-10T06:39:54.895Z,1.70
2023-05-10T06:42:21.442Z,1.60
2023-05-10T06:44:49.192Z,1.52
2023-05-10T06:47:15.769Z,1.75
2023-05-10T06:49:42.127Z,1.48
2023-05-10T06:52:08.902Z,1.88
2023-05-10T06:54:35.534Z,1.80
2023-05-10T06:57:07.180Z,1.80
2023-05-10T06:59:37.756Z,1.90
2023-05-10T07:02:04.694Z,1.50
2023-05-10T07:04:31.343Z,1.70
2023-05-10T07:06:58.101Z,1.98
2023-05-10T07:09:25.565Z,2.00
2023-05-10T07:11:51.936Z,1.75
2023-05-10T07:14:18.502Z,2.08
2023-05-10T07:16:45.649Z,1.92
2023-05-10T07:19:12.356Z,2.30
2023-05-10T07:21:39.043Z,2.13
2023-05-10T07:24:05.689Z,1.90
2023-05-10T07:26:32.108Z,2.13
2023-05-10T07:28:58.492Z,1.98
2023-05-10T07:31:25.061Z,1.70
2023-05-10T07:33:51.611Z,2.00
2023-05-10T07:36:18.197Z,1.90
2023-05-10T07:38:44.806Z,1.80
2023-05-10T07:41:12.547Z,2.00
2023-05-10T07:43:39.086Z,1.83
2023-05-10T07:46:06.496Z,2.10
2023-05-10T07:48:33.091Z,2.20
2023-05-10T07:50:59.753Z,2.10
2023-05-10T07:53:27.510Z,2.17
2023-05-10T07:56:14.096Z,2.28
2023-05-10T07:58:40.639Z,2.45
2023-05-10T08:01:07.317Z,2.00
2023-05-10T08:03:33.744Z,1.80
2023-05-10T08:06:01.764Z,1.98
2023-05-10T08:08:28.351Z,2.10
2023-05-10T08:10:55.086Z,2.13
2023-05-10T08:13:22.261Z,2.08
2023-05-10T08:15:49.068Z,2.00
2023-05-10T08:18:15.842Z,2.10
2023-05-10T08:20:42.374Z,2.03
2023-05-10T08:23:09.315Z,2.20
2023-05-10T08:25:36.586Z,2.00
2023-05-10T08:28:03.472Z,2.13
2023-05-10T08:30:31.048Z,2.30
2023-05-10T08:32:57.513Z,2.38
2023-05-10T08:35:24.118Z,2.55
2023-05-10T08:37:50.823Z,2.80
2023-05-10T08:40:19.903Z,2.47
2023-05-10T08:43:00.129Z,2.50
2023-05-10T08:45:29.486Z,2.40
2023-05-10T08:47:56.964Z,2.35
2023-05-10T08:50:23.827Z,2.08
2023-05-10T08:52:53.550Z,2.42
2023-05-10T08:55:20.247Z,2.90
2023-05-10T08:57:46.589Z,2.60
2023-05-10T09:00:14.051Z,2.40
2023-05-10T09:02:41.116Z,2.08
2023-05-10T09:05:07.899Z,2.67
2023-05-10T09:07:36.323Z,2.50
2023-05-10T09:10:03.229Z,2.20
2023-05-10T09:12:29.842Z,2.30
2023-05-10T09:14:56.951Z,2.17
2023-05-10T09:17:24.418Z,2.45
2023-05-10T09:19:50.858Z,2.00
2023-05-10T09:22:17.622Z,2.30
2023-05-10T09:24:46.405Z,1.70
2023-05-10T09:27:13.186Z,1.67
2023-05-10T09:29:40.709Z,1.88
2023-05-10T09:32:07.792Z,1.98
2023-05-10T09:34:35.975Z,1.75
2023-05-10T09:37:04.683Z,1.70
2023-05-10T09:39:32.948Z,1.67
2023-05-10T09:42:00.787Z,1.63
2023-05-10T09:44:28.220Z,1.83
2023-05-10T09:46:54.553Z,1.80
2023-05-10T09:49:21.881Z,1.60
2023-05-10T09:51:48.944Z,1.70
2023-05-10T09:54:16.444Z,1.60
2023-05-10T09:56:43.330Z,1.90
2023-05-10T09:59:14.151Z,1.63
2023-05-10T10:01:41.802Z,1.33
2023-05-10T10:04:10.744Z,1.55
2023-05-10T10:06:38.377Z,1.40
2023-05-10T10:09:05.688Z,1.73
2023-05-10T10:11:32.362Z,1.70
2023-05-10T10:13:59.192Z,2.00
2023-05-10T10:16:25.921Z,1.88
2023-05-10T10:18:52.614Z,2.05
2023-05-10T10:21:21.659Z,1.58
2023-05-10T10:23:48.235Z,1.70
2023-05-10T10:26:15.453Z,1.30
2023-05-10T10:28:48.767Z,1.48
2023-05-10T10:31:34.352Z,1.10
2023-05-10T10:34:11.123Z,1.05
2023-05-10T10:36:41.546Z,1.10
2023-05-10T10:39:10.918Z,0.90
2023-05-10T10:41:38.674Z,0.80
2023-05-10T10:44:24.072Z,1.10
2023-05-10T10:46:59.765Z,1.33
2023-05-10T10:49:26.526Z,1.08
2023-05-10T10:52:11.946Z,0.93
2023-05-10T10:54:38.564Z,1.00
2023-05-10T10:57:17.630Z,0.95
2023-05-10T10:59:47.326Z,1.00
2023-05-10T11:02:32.584Z,1.00
2023-05-10T11:04:59.443Z,0.95
2023-05-10T11:07:26.205Z,1.00
2023-05-10T11:09:53.218Z,0.90
2023-05-10T11:12:19.760Z,0.80
2023-05-10T11:14:51.159Z,0.80
2023-05-10T11:17:25.145Z,0.85
2023-05-10T11:22:19.520Z,0.90
2023-05-10T11:24:57.349Z,0.65
2023-05-10T11:27:23.927Z,0.80
2023-05-10T11:29:53.482Z,0.60
2023-05-10T11:32:22.567Z,0.80
2023-05-10T11:34:49.382Z,0.65
2023-05-10T11:37:15.805Z,0.70
2023-05-10T11:39:46.613Z,0.80
2023-05-10T11:42:13.334Z,0.70
2023-05-10T11:44:40.038Z,0.90
2023-05-10T11:47:06.540Z,0.80
2023-05-10T11:49:33.814Z,0.73
2023-05-10T11:52:07.343Z,0.77
2023-05-10T11:54:35.959Z,0.80
2023-05-10T11:57:02.722Z,0.70
2023-05-10T11:59:29.136Z,0.70
2023-05-10T12:01:55.754Z,0.80
2023-05-10T12:04:22.608Z,0.65
2023-05-10T12:06:49.129Z,0.73
2023-05-10T12:09:17.593Z,0.98
2023-05-10T12:11:44.723Z,0.68
2023-05-10T12:14:11.682Z,1.00
2023-05-10T12:16:38.469Z,0.75
2023-05-10T12:19:05.085Z,0.90
2023-05-10T12:21:31.971Z,0.80
2023-05-10T12:24:01.455Z,0.88
2023-05-10T12:26:28.999Z,0.80
2023-05-10T12:28:56.149Z,0.70
2023-05-10T12:31:22.765Z,0.80
2023-05-10T12:33:50.557Z,0.80
2023-05-10T12:36:17.724Z,0.70
2023-05-10T12:38:50.928Z,0.80
2023-05-10T12:41:18.369Z,0.60
2023-05-10T12:43:46.521Z,0.70
2023-05-10T12:46:15.899Z,0.70
2023-05-10T12:48:45.266Z,0.80
2023-05-10T12:51:18.466Z,0.80
2023-05-10T12:53:49.346Z,0.80
2023-05-10T12:56:18.851Z,0.77
2023-05-10T12:58:49.194Z,0.80
2023-05-10T13:01:15.873Z,0.70
2023-05-10T13:03:43.993Z,0.73
2023-05-10T13:06:10.815Z,0.90
2023-05-10T13:08:37.602Z,0.98
2023-05-10T13:11:07.059Z,0.90
2023-05-10T13:13:35.009Z,0.80
2023-05-10T13:16:01.439Z,0.60
2023-05-10T13:18:28.295Z,0.85
2023-05-10T13:20:55.282Z,1.10
2023-05-10T13:23:21.615Z,0.77
2023-05-10T13:25:48.377Z,0.60
2023-05-10T13:28:15.003Z,0.80
2023-05-10T13:30:41.359Z,0.73
2023-05-10T13:33:07.933Z,0.73
2023-05-10T13:35:34.514Z,0.60
2023-05-10T13:38:01.595Z,0.60
2023-05-10T13:40:31.356Z,0.80
2023-05-10T13:42:59.384Z,0.73
2023-05-10T13:45:26.246Z,0.68
2023-05-10T13:47:53.355Z,0.60
2023-05-10T13:50:20.117Z,0.60
2023-05-10T13:52:46.824Z,0.70
2023-05-10T13:55:14.462Z,0.70
2023-05-10T13:57:40.870Z,0.82
2023-05-10T14:00:09.121Z,0.70
2023-05-10T14:02:36.165Z,0.90
2023-05-10T14:05:02.906Z,0.65
2023-05-10T14:07:29.736Z,0.60
2023-05-10T14:09:56.311Z,0.70
2023-05-10T14:12:22.692Z,0.60
2023-05-10T14:14:49.463Z,0.63
2023-05-10T14:17:16.456Z,0.70
2023-05-10T14:19:43.666Z,0.60
2023-05-10T14:22:10.493Z,0.68
2023-05-10T14:24:37.277Z,0.63
2023-05-10T14:27:04.723Z,0.75
2023-05-10T14:29:31.395Z,0.60
2023-05-10T14:31:57.935Z,0.55
2023-05-10T14:34:24.342Z,0.60
2023-05-10T14:36:50.894Z,0.60
2023-05-10T14:39:17.660Z,0.57
2023-05-10T14:41:45.468Z,0.65
2023-05-10T14:44:12.314Z,0.80
2023-05-10T14:46:39.570Z,0.60
2023-05-10T14:49:06.190Z,0.60
2023-05-10T14:51:32.703Z,0.90
2023-05-10T14:53:59.294Z,0.60
2023-05-10T14:56:26.767Z,0.60
2023-05-10T14:58:53.240Z,0.73
2023-05-10T15:01:20.273Z,0.60
2023-05-10T15:03:47.407Z,0.80
2023-05-10T15:06:16.855Z,0.60
2023-05-10T15:08:44.506Z,0.70
2023-05-10T15:11:12.135Z,0.80
2023-05-10T15:13:38.683Z,0.80
2023-05-10T15:16:05.344Z,0.70
2023-05-10T15:18:31.998Z,0.85
2023-05-10T15:20:59.546Z,0.80
2023-05-10T15:23:26.281Z,0.80
2023-05-10T15:25:56.408Z,0.70
2023-05-10T15:28:23.601Z,0.80
2023-05-10T15:30:49.966Z,1.08
2023-05-10T15:33:17.121Z,0.80
2023-05-10T15:35:44.287Z,0.70
2023-05-10T15:38:11.666Z,0.80
2023-05-10T15:40:38.279Z,1.00
2023-05-10T15:43:06.370Z,0.82
2023-05-10T15:45:35.255Z,0.95
2023-05-10T15:48:03.875Z,0.85
2023-05-10T15:50:30.310Z,0.90
2023-05-10T15:52:57.114Z,0.95
2023-05-10T15:55:23.766Z,0.90
2023-05-10T15:57:50.569Z,0.90
2023-05-10T16:00:17.993Z,0.90
2023-05-10T16:02:44.381Z,0.90
2023-05-10T16:05:11.047Z,0.85
2023-05-10T16:07:37.629Z,1.05
2023-05-10T16:10:06.562Z,0.95
2023-05-10T16:12:33.009Z,1.10
2023-05-10T16:14:59.621Z,1.20
2023-05-10T16:17:26.356Z,1.10
2023-05-10T16:19:53.332Z,0.93
2023-05-10T16:22:19.854Z,1.00
2023-05-10T16:24:46.268Z,0.90
2023-05-10T16:27:13.434Z,1.27
2023-05-10T16:29:39.764Z,1.02
2023-05-10T16:32:06.418Z,1.17
2023-05-10T16:34:33.386Z,1.25
2023-05-10T16:37:00.100Z,1.08
2023-05-10T16:39:27.970Z,1.02
2023-05-10T16:41:54.311Z,1.25
2023-05-10T16:44:21.891Z,1.33
2023-05-10T16:46:49.376Z,1.42
2023-05-10T16:49:16.016Z,1.40
2023-05-10T16:51:42.789Z,1.20
2023-05-10T16:54:09.322Z,1.25
2023-05-10T16:56:37.194Z,2.13
2023-05-10T16:59:03.723Z,1.42
2023-05-10T17:01:32.464Z,1.60
2023-05-10T17:03:59.170Z,1.30
2023-05-10T17:06:25.964Z,1.35
2023-05-10T17:08:52.403Z,1.23
2023-05-10T17:11:21.266Z,1.10
2023-05-10T17:13:48.348Z,1.20
2023-05-10T17:16:15.120Z,1.48
2023-05-10T17:18:42.788Z,3.58
2023-05-10T17:21:09.664Z,1.70
2023-05-10T17:23:36.550Z,1.10
2023-05-10T17:26:06.901Z,1.40
2023-05-10T17:28:33.833Z,1.20
2023-05-10T17:31:00.659Z,1.15
2023-05-10T17:33:27.092Z,1.23
2023-05-10T17:35:53.820Z,1.10
2023-05-10T17:38:20.706Z,1.40
2023-05-10T17:40:47.368Z,1.13
2023-05-10T17:43:13.881Z,1.48
2023-05-10T17:45:40.550Z,1.50
2023-05-10T17:48:08.071Z,1.63
2023-05-10T17:50:35.344Z,1.55
2023-05-10T17:53:03.065Z,1.80
2023-05-10T17:55:30.736Z,1.30
2023-05-10T17:57:59.463Z,1.33
2023-05-10T18:00:26.056Z,1.30
2023-05-10T18:02:52.690Z,1.30
2023-05-10T18:05:19.681Z,1.33
2023-05-10T18:07:47.833Z,1.20
2023-05-10T18:10:14.380Z,1.20
2023-05-10T18:12:41.113Z,1.20
2023-05-10T18:15:08.259Z,1.17
2023-05-10T18:17:35.007Z,1.10
2023-05-10T18:20:02.483Z,4.80
2023-05-10T18:22:29.096Z,1.00
2023-05-10T18:24:56.009Z,1.08
2023-05-10T18:27:22.614Z,1.08
2023-05-10T18:29:50.584Z,1.17
2023-05-10T18:32:17.624Z,1.08
2023-05-10T18:34:44.416Z,1.63
2023-05-10T18:37:12.275Z,1.10
2023-05-10T18:39:39.982Z,1.00
2023-05-10T18:42:06.791Z,1.35
2023-05-10T18:44:33.727Z,1.10
2023-05-10T18:47:00.472Z,1.20
2023-05-10T18:49:29.304Z,1.27
2023-05-10T18:51:55.658Z,1.25
2023-05-10T18:54:22.692Z,1.30
2023-05-10T18:56:49.766Z,1.40
2023-05-10T18:59:16.744Z,1.45
2023-05-10T19:01:44.639Z,1.38
2023-05-10T19:04:11.359Z,1.50
2023-05-10T19:06:37.912Z,1.45
2023-05-10T19:09:04.515Z,1.50
2023-05-10T19:11:33.989Z,2.05
2023-05-10T19:14:01.463Z,1.50
2023-05-10T19:16:29.683Z,1.30
2023-05-10T19:19:00.899Z,1.60
2023-05-10T19:21:27.703Z,1.30
2023-05-10T19:23:54.060Z,1.45
2023-05-10T19:26:21.732Z,1.58
2023-05-10T19:28:50.260Z,1.52
2023-05-10T19:31:16.755Z,1.45
2023-05-10T19:33:43.612Z,1.50
2023-05-10T19:36:10.123Z,1.85
2023-05-10T19:38:36.856Z,1.75
2023-05-10T19:41:03.551Z,3.05
2023-05-10T19:43:33.929Z,1.60
2023-05-10T19:46:04.650Z,1.80
2023-05-10T19:48:31.859Z,1.90
2023-05-10T19:51:05.174Z,1.98
2023-05-10T19:53:33.688Z,2.15
2023-05-10T19:56:07.238Z,2.03
2023-05-10T19:58:33.923Z,2.47
2023-05-10T20:01:00.665Z,2.10
2023-05-10T20:03:27.324Z,2.53
2023-05-10T20:05:54.062Z,2.00
2023-05-10T20:08:20.871Z,1.77
2023-05-10T20:10:47.472Z,2.47
2023-05-10T20:13:14.375Z,2.05
2023-05-10T20:15:41.107Z,2.10
2023-05-10T20:18:07.891Z,2.78
2023-05-10T20:20:34.443Z,2.17
2023-05-10T20:23:01.362Z,2.15
2023-05-10T20:25:28.822Z,2.30
2023-05-10T20:27:55.560Z,2.22
2023-05-10T20:30:23.148Z,2.22
2023-05-10T20:32:49.850Z,2.20
2023-05-10T20:35:16.607Z,2.50
2023-05-10T20:37:43.930Z,2.13
2023-05-10T20:40:11.292Z,2.30
2023-05-10T20:42:38.017Z,2.40
2023-05-10T20:45:05.076Z,2.38
2023-05-10T20:47:31.918Z,2.47
2023-05-10T20:49:59.529Z,2.78
2023-05-10T20:52:26.772Z,2.50
2023-05-10T20:54:53.634Z,2.80
2023-05-10T20:57:20.252Z,2.30
2023-05-10T20:59:46.793Z,2.08
2023-05-10T21:02:14.116Z,2.80
2023-05-10T21:04:40.884Z,2.70
2023-05-10T21:07:07.686Z,3.30
2023-05-10T21:09:36.329Z,3.10
2023-05-10T21:12:03.417Z,3.00
2023-05-10T21:14:30.872Z,2.78
2023-05-10T21:16:57.608Z,2.40
2023-05-10T21:19:26.982Z,2.67
2023-05-10T21:21:56.231Z,2.45
2023-05-10T21:24:24.360Z,3.90
2023-05-10T21:26:51.384Z,2.78
2023-05-10T21:29:18.262Z,3.10
2023-05-10T21:31:47.016Z,3.42
2023-05-10T21:34:14.079Z,3.72
2023-05-10T21:36:40.600Z,3.35
2023-05-10T21:39:07.457Z,3.50
2023-05-10T21:41:34.290Z,3.58
2023-05-10T21:44:00.800Z,3.15
2023-05-10T21:46:27.391Z,3.40
2023-05-10T21:48:53.999Z,3.20
2023-05-10T21:51:21.832Z,3.35
2023-05-10T21:53:48.321Z,3.45
2023-05-10T21:56:14.767Z,3.45
2023-05-10T21:58:41.314Z,3.38
2023-05-10T22:01:07.956Z,3.10
2023-05-10T22:03:34.620Z,3.15
2023-05-10T22:06:01.401Z,3.05
2023-05-10T22:08:28.121Z,2.80
2023-05-10T22:10:54.715Z,2.65
2023-05-10T22:13:21.629Z,2.65
2023-05-10T22:15:49.893Z,2.72
2023-05-10T22:18:16.433Z,2.60
2023-05-10T22:20:46.731Z,2.35
2023-05-10T22:23:14.715Z,2.65
2023-05-10T22:25:42.627Z,2.58
2023-05-10T22:28:09.266Z,3.00
2023-05-10T22:30:36.477Z,3.20
2023-05-10T22:33:03.151Z,3.10
2023-05-10T22:35:29.698Z,3.10
2023-05-10T22:37:56.522Z,2.72
2023-05-10T22:40:22.919Z,2.58
2023-05-10T22:42:49.380Z,2.95
2023-05-10T22:45:17.430Z,2.83
2023-05-10T22:47:45.544Z,2.90
2023-05-10T22:50:12.733Z,2.65
2023-05-10T22:52:40.857Z,2.47
2023-05-10T22:55:07.646Z,2.80
2023-05-10T22:57:35.624Z,2.58
2023-05-10T23:00:03.532Z,2.47
2023-05-10T23:02:30.269Z,2.13
2023-05-10T23:04:58.103Z,2.33
2023-05-10T23:07:26.082Z,2.45
2023-05-10T23:09:52.605Z,2.30
2023-05-10T23:12:19.068Z,2.58
2023-05-10T23:14:46.700Z,2.67
2023-05-10T23:17:13.769Z,2.30
2023-05-10T23:19:40.789Z,2.47
2023-05-10T23:22:07.819Z,2.70
2023-05-10T23:24:34.293Z,2.70
2023-05-10T23:27:00.619Z,2.70
2023-05-10T23:29:27.337Z,2.72
2023-05-10T23:31:53.797Z,2.70
2023-05-10T23:34:22.669Z,3.05
2023-05-10T23:36:50.390Z,2.90
2023-05-10T23:39:17.543Z,2.90
2023-05-10T23:41:45.518Z,2.95
2023-05-10T23:44:12.001Z,2.88
2023-05-10T23:46:38.400Z,2.58
2023-05-10T23:49:04.833Z,2.90
2023-05-10T23:51:31.646Z,2.88
2023-05-10T23:53:58.404Z,2.60
2023-05-10T23:56:25.738Z,2.95
2023-05-10T23:58:52.251Z,2.63
